Time;durP1;ratioP1;P1;durP2;ratioP2;P2;SDS_P1;SDS_P2;PMS_P1;PMS_P2;Temp;Humidity;BMP_temperature;BMP_pressure;BME280_temperature;BME280_humidity;BME280_pressure;Samples;Min_cycle;Max_cycle;Signal;HPM_P1;HPM_P2
2022/05/30 00:01:49;;;;;;;;;;;;;;;;;;5038104;28;19971;-86
2022/05/30 00:04:15;;;;;;;;;;;;;;;;;;5033830;28;20436;-87
2022/05/30 00:06:41;;;;;;;;;;;;;;;;;;5035053;28;20014;-87
2022/05/30 00:09:08;;;;;;;;;;;;;;;;;;5037703;28;19913;-88
2022/05/30 00:11:35;;;;;;;;;;;;;;;;;;5031458;28;20004;-87
2022/05/30 00:14:01;;;;;;;;;;;;;;;;;;5060609;28;20400;-87
2022/05/30 00:16:27;;;;;;;;;;;;;;;;;;5031480;28;19913;-87
2022/05/30 00:18:53;;;;;;;;;;;;;;;;;;5031283;28;19917;-83
2022/05/30 00:21:19;;;;;;;;;;;;;;;;;;5038847;28;20317;-83
2022/05/30 00:23:45;;;;;;;;;;;;;;;;;;5035510;28;19917;-84
2022/05/30 00:26:11;;;;;;;;;;;;;;;;;;5042350;28;19954;-83
2022/05/30 00:28:37;;;;;;;;;;;;;;;;;;5037764;28;19999;-83
2022/05/30 00:31:03;;;;;;;;;;;;;;;;;;5032848;28;19924;-84
2022/05/30 00:33:29;;;;;;;;;;;;;;;;;;5037609;28;19927;-84
2022/05/30 00:35:55;;;;;;;;;;;;;;;;;;5033371;28;19912;-82
2022/05/30 00:38:22;;;;;;;;;;;;;;;;;;5036018;28;19925;-84
2022/05/30 00:40:48;;;;;;;;;;;;;;;;;;5034947;28;19915;-84
2022/05/30 00:43:14;;;;;;;;;;;;;;;;;;5032553;28;19943;-84
2022/05/30 00:45:40;;;;;;;;;;;;;;;;;;5038179;28;20436;-84
2022/05/30 00:48:06;;;;;;;;;;;;;;;;;;5032072;28;19913;-84
2022/05/30 00:50:32;;;;;;;;;;;;;;;;;;5034970;28;19975;-85
2022/05/30 00:52:57;;;;;;;;;;;;;;;;;;5032606;28;20418;-84
2022/05/30 00:55:23;;;;;;;;;;;;;;;;;;5035062;28;19909;-86
2022/05/30 00:57:49;;;;;;;;;;;;;;;;;;5035543;28;20073;-85
2022/05/30 01:00:16;;;;;;;;;;;;;;;;;;5027443;28;19913;-86
2022/05/30 01:02:42;;;;;;;;;;;;;;;;;;5032750;28;20569;-85
2022/05/30 01:07:53;;;;;;;;;;;;;;;;;;5030874;28;19920;-86
2022/05/30 01:10:19;;;;;;;;;;;;;;;;;;5032028;28;19924;-86
2022/05/30 01:12:49;;;;;;;;;;;;;;;;;;5032719;28;19913;-85
2022/05/30 01:15:15;;;;;;;;;;;;;;;;;;5037050;28;19928;-89
2022/05/30 01:17:41;;;;;;;;;;;;;;;;;;5033423;28;19912;-85
2022/05/30 01:20:07;;;;;;;;;;;;;;;;;;5033701;28;20389;-86
2022/05/30 01:22:33;;;;;;;;;;;;;;;;;;5032077;28;19913;-86
2022/05/30 01:24:59;;;;;;;;;;;;;;;;;;5033836;28;19982;-84
2022/05/30 01:27:25;;;;;;;;;;;;;;;;;;5035242;28;19947;-85
2022/05/30 01:29:51;;;;;;;;;;;;;;;;;;5033922;28;20367;-84
2022/05/30 01:32:18;;;;;;;;;;;;;;;;;;5023863;28;20008;-85
2022/05/30 01:34:44;;;;;;;;;;;;;;;;;;5035221;28;19974;-84
2022/05/30 01:37:10;;;;;;;;;;;;;;;;;;5029079;28;19919;-86
2022/05/30 01:39:36;;;;;;;;;;;;;;;;;;5033994;28;20388;-85
2022/05/30 01:42:01;;;;;;;;;;;;;;;;;;5033784;28;20589;-84
2022/05/30 01:44:27;;;;;;;;;;;;;;;;;;5020833;28;19939;-84
2022/05/30 01:46:53;;;;;;;;;;;;;;;;;;5039632;28;19912;-84
2022/05/30 01:49:19;;;;;;;;;;;;;;;;;;5038299;28;19917;-83
2022/05/30 01:51:46;;;;;;;;;;;;;;;;;;5033279;28;19940;-84
2022/05/30 01:54:11;;;;;;;;;;;;;;;;;;5031853;28;19921;-85
2022/05/30 01:56:37;;;;;;;;;;;;;;;;;;5034686;28;19963;-85
2022/05/30 01:59:03;;;;;;;;;;;;;;;;;;5043057;28;19909;-85
2022/05/30 02:01:29;;;;;;;;;;;;;;;;;;5035134;28;20393;-87
2022/05/30 02:03:55;;;;;;;;;;;;;;;;;;5028984;28;19919;-85
2022/05/30 02:06:22;;;;;;;;;;;;;;;;;;5024776;28;19920;-82
2022/05/30 02:08:48;;;;;;;;;;;;;;;;;;5020743;28;19970;-82
2022/05/30 02:11:14;;;;;;;;;;;;;;;;;;5025366;28;20722;-81
2022/05/30 02:13:39;;;;;;;;;;;;;;;;;;5025828;28;19916;-82
2022/05/30 02:18:50;;;;;;;;;;;;;;;;;;5024569;28;19923;-82
2022/05/30 02:21:16;;;;;;;;;;;;;;;;;;5032375;28;19920;-82
2022/05/30 02:23:42;;;;;;;;;;;;;;;;;;5026052;28;19917;-81
2022/05/30 02:26:08;;;;;;;;;;;;;;;;;;5021506;28;19920;-81
2022/05/30 02:28:33;;;;;;;;;;;;;;;;;;5023536;28;19924;-82
2022/05/30 02:30:59;;;;;;;;;;;;;;;;;;5021802;28;19917;-82
2022/05/30 02:38:55;;;;;;;;;;;;;;;;;;5022536;28;19986;-82
2022/05/30 02:41:21;;;;;;;;;;;;;;;;;;5027146;28;20373;-82
2022/05/30 02:43:47;;;;;;;;;;;;;;;;;;5021744;28;19916;-85
2022/05/30 02:46:12;;;;;;;;;;;;;;;;;;5026810;28;19936;-85
2022/05/30 02:48:39;;;;;;;;;;;;;;;;;;5019736;28;19916;-86
2022/05/30 02:51:04;;;;;;;;;;;;;;;;;;5031207;28;19913;-85
2022/05/30 02:53:30;;;;;;;;;;;;;;;;;;5038508;28;19919;-85
2022/05/30 02:55:56;;;;;;;;;;;;;;;;;;5021581;28;20405;-83
2022/05/30 02:58:22;;;;;;;;;;;;;;;;;;5027194;28;19912;-82
2022/05/30 03:00:48;;;;;;;;;;;;;;;;;;5026294;28;19913;-82
2022/05/30 03:03:14;;;;;;;;;;;;;;;;;;5022403;28;19913;-82
2022/05/30 03:05:40;;;;;;;;;;;;;;;;;;5020929;28;20057;-83
2022/05/30 03:08:06;;;;;;;;;;;;;;;;;;5025891;28;20313;-83
2022/05/30 03:10:32;;;;;;;;;;;;;;;;;;5033915;28;20301;-84
2022/05/30 03:12:58;;;;;;;;;;;;;;;;;;5031511;28;20592;-84
2022/05/30 03:15:24;;;;;;;;;;;;;;;;;;5036011;28;19913;-83
2022/05/30 03:17:51;;;;;;;;;;;;;;;;;;5034320;28;19912;-83
2022/05/30 03:20:17;;;;;;;;;;;;;;;;;;5034271;28;21667;-84
2022/05/30 03:22:43;;;;;;;;;;;;;;;;;;5064234;28;19924;-83
2022/05/30 03:25:09;;;;;;;;;;;;;;;;;;5026974;28;19982;-84
2022/05/30 03:27:35;;;;;;;;;;;;;;;;;;5054763;28;20016;-83
2022/05/30 03:30:00;;;;;;;;;;;;;;;;;;5051485;28;20015;-86
2022/05/30 03:32:26;;;;;;;;;;;;;;;;;;5019900;28;20400;-84
2022/05/30 03:34:52;;;;;;;;;;;;;;;;;;5020518;28;20655;-82
2022/05/30 03:37:18;;;;;;;;;;;;;;;;;;5027127;28;19955;-82
2022/05/30 03:39:44;;;;;;;;;;;;;;;;;;5023507;28;19916;-82
2022/05/30 03:42:13;;;;;;;;;;;;;;;;;;5020583;28;19917;-81
2022/05/30 03:44:39;;;;;;;;;;;;;;;;;;5024377;28;19924;-82
2022/05/30 03:47:05;;;;;;;;;;;;;;;;;;5047712;28;20409;-84
2022/05/30 03:49:31;;;;;;;;;;;;;;;;;;5027730;28;19913;-84
2022/05/30 03:51:56;;;;;;;;;;;;;;;;;;5025461;28;19944;-85
2022/05/30 03:54:22;;;;;;;;;;;;;;;;;;5024833;28;19934;-85
2022/05/30 03:56:48;;;;;;;;;;;;;;;;;;5032889;28;20500;-85
2022/05/30 03:59:14;;;;;;;;;;;;;;;;;;5026586;28;19917;-84
2022/05/30 04:01:40;;;;;;;;;;;;;;;;;;5033865;28;19916;-85
2022/05/30 04:04:06;;;;;;;;;;;;;;;;;;5035070;28;19912;-85
2022/05/30 04:06:32;;;;;;;;;;;;;;;;;;5033252;28;19925;-85
2022/05/30 04:08:58;;;;;;;;;;;;;;;;;;5037986;28;19912;-85
2022/05/30 04:11:24;;;;;;;;;;;;;;;;;;5036555;28;19959;-86
2022/05/30 04:13:50;;;;;;;;;;;;;;;;;;5028210;28;20023;-85
2022/05/30 04:16:16;;;;;;;;;;;;;;;;;;5049506;28;20457;-85
2022/05/30 04:18:42;;;;;;;;;;;;;;;;;;5030478;28;19912;-85
2022/05/30 04:21:08;;;;;;;;;;;;;;;;;;5040055;28;19954;-85
2022/05/30 04:23:34;;;;;;;;;;;;;;;;;;5028275;28;19913;-85
2022/05/30 04:26:00;;;;;;;;;;;;;;;;;;5020682;28;19925;-83
2022/05/30 04:28:26;;;;;;;;;;;;;;;;;;5026242;28;19924;-83
2022/05/30 04:30:52;;;;;;;;;;;;;;;;;;5019162;28;19921;-84
2022/05/30 04:33:18;;;;;;;;;;;;;;;;;;5028708;28;19967;-83
2022/05/30 04:35:44;;;;;;;;;;;;;;;;;;5022314;28;20047;-83
2022/05/30 04:38:10;;;;;;;;;;;;;;;;;;5037036;28;19917;-84
2022/05/30 04:40:36;;;;;;;;;;;;;;;;;;5018337;28;20023;-84
2022/05/30 04:43:02;;;;;;;;;;;;;;;;;;5047800;28;19966;-84
2022/05/30 04:45:28;;;;;;;;;;;;;;;;;;5025913;28;19925;-83
2022/05/30 04:47:53;;;;;;;;;;;;;;;;;;5026399;28;19913;-83
2022/05/30 04:50:19;;;;;;;;;;;;;;;;;;5030140;28;19924;-81
2022/05/30 04:52:45;;;;;;;;;;;;;;;;;;5025757;28;21447;-81
2022/05/30 04:55:11;;;;;;;;;;;;;;;;;;5040815;28;19986;-83
2022/05/30 04:57:37;;;;;;;;;;;;;;;;;;5027928;28;19915;-83
2022/05/30 05:00:05;;;;;;;;;;;;;;;;;;5029149;28;20138;-86
2022/05/30 05:02:31;;;;;;;;;;;;;;;;;;5023838;28;19913;-86
2022/05/30 05:04:57;;;;;;;;;;;;;;;;;;5022118;28;19931;-84
2022/05/30 05:07:23;;;;;;;;;;;;;;;;;;5027275;28;20294;-86
2022/05/30 05:09:49;;;;;;;;;;;;;;;;;;5026072;28;19960;-85
2022/05/30 05:12:15;;;;;;;;;;;;;;;;;;5026118;28;20016;-85
2022/05/30 05:14:41;;;;;;;;;;;;;;;;;;5028668;28;19913;-90
2022/05/30 05:17:07;;;;;;;;;;;;;;;;;;5032797;28;20539;-85
2022/05/30 05:19:33;;;;;;;;;;;;;;;;;;5029302;28;20385;-86
2022/05/30 05:21:59;;;;;;;;;;;;;;;;;;5032639;28;19920;-86
2022/05/30 05:24:25;;;;;;;;;;;;;;;;;;5022688;28;19968;-86
2022/05/30 05:26:51;;;;;;;;;;;;;;;;;;5018651;28;20024;-88
2022/05/30 05:29:17;;;;;;;;;;;;;;;;;;5020560;28;19946;-87
2022/05/30 05:31:43;;;;;;;;;;;;;;;;;;5036771;28;19917;-88
2022/05/30 05:34:09;;;;;;;;;;;;;;;;;;5021337;28;19913;-88
2022/05/30 05:36:35;;;;;;;;;;;;;;;;;;5020091;28;20448;-87
2022/05/30 05:39:00;;;;;;;;;;;;;;;;;;5025519;28;19917;-88
2022/05/30 05:41:26;;;;;;;;;;;;;;;;;;5054061;28;19917;-87
2022/05/30 05:43:55;;;;;;;;;;;;;;;;;;5027987;28;19913;-89
2022/05/30 05:46:21;;;;;;;;;;;;;;;;;;5037806;28;20369;-91
2022/05/30 05:48:47;;;;;;;;;;;;;;;;;;5037936;28;19965;-85
2022/05/30 05:51:18;;;;;;;;;;;;;;;;;;5035432;28;19913;-83
2022/05/30 05:53:44;;;;;;;;;;;;;;;;;;5036956;28;20032;-84
2022/05/30 05:56:10;;;;;;;;;;;;;;;;;;5035716;28;20007;-84
2022/05/30 05:58:36;;;;;;;;;;;;;;;;;;5033819;28;19924;-85
2022/05/30 06:01:02;;;;;;;;;;;;;;;;;;5036425;28;20034;-84
2022/05/30 06:03:28;;;;;;;;;;;;;;;;;;5039430;28;19928;-85
2022/05/30 06:05:54;;;;;;;;;;;;;;;;;;5034959;28;19932;-84
2022/05/30 06:08:20;;;;;;;;;;;;;;;;;;5039303;28;19948;-85
2022/05/30 06:13:30;;;;;;;;;;;;;;;;;;5030265;28;19920;-82
2022/05/30 06:15:56;;;;;;;;;;;;;;;;;;5036404;28;20442;-81
2022/05/30 06:18:22;;;;;;;;;;;;;;;;;;5039593;28;19913;-81
2022/05/30 06:20:48;;;;;;;;;;;;;;;;;;5034098;28;19909;-82
2022/05/30 06:23:14;;;;;;;;;;;;;;;;;;5035864;28;19956;-81
2022/05/30 06:25:41;;;;;;;;;;;;;;;;;;5032328;28;20431;-81
2022/05/30 06:28:07;;;;;;;;;;;;;;;;;;5028293;28;20298;-81
2022/05/30 06:30:33;;;;;;;;;;;;;;;;;;5038432;28;19915;-81
2022/05/30 06:32:59;;;;;;;;;;;;;;;;;;5036560;28;19913;-81
2022/05/30 06:35:25;;;;;;;;;;;;;;;;;;5039504;28;19912;-79
2022/05/30 06:37:51;;;;;;;;;;;;;;;;;;5039791;28;19919;-79
2022/05/30 06:40:17;;;;;;;;;;;;;;;;;;5041379;28;19947;-82
2022/05/30 06:42:43;;;;;;;;;;;;;;;;;;5030875;28;20460;-81
2022/05/30 06:45:09;;;;;;;;;;;;;;;;;;5038874;28;19916;-81
2022/05/30 06:47:34;;;;;;;;;;;;;;;;;;5041782;28;19960;-82
2022/05/30 06:50:01;;;;;;;;;;;;;;;;;;5039670;28;19912;-82
2022/05/30 06:52:27;;;;;;;;;;;;;;;;;;5036955;28;19913;-81
2022/05/30 06:54:53;;;;;;;;;;;;;;;;;;5040888;28;19924;-81
2022/05/30 07:00:03;;;;;;;;;;;;;;;;;;5038662;28;19919;-81
2022/05/30 07:02:29;;;;;;;;;;;;;;;;;;5041158;28;19912;-87
2022/05/30 07:04:55;;;;;;;;;;;;;;;;;;5070642;28;19923;-84
2022/05/30 07:07:21;;;;;;;;;;;;;;;;;;5036929;28;19924;-84
2022/05/30 07:09:47;;;;;;;;;;;;;;;;;;5038280;28;19918;-80
2022/05/30 07:12:13;;;;;;;;;;;;;;;;;;5040770;28;20036;-81
2022/05/30 07:14:39;;;;;;;;;;;;;;;;;;5038719;28;20602;-82
2022/05/30 07:17:04;;;;;;;;;;;;;;;;;;5037884;28;19913;-83
2022/05/30 07:19:30;;;;;;;;;;;;;;;;;;5038865;28;20301;-82
2022/05/30 07:21:56;;;;;;;;;;;;;;;;;;5039797;28;19912;-81
2022/05/30 07:24:22;;;;;;;;;;;;;;;;;;5039422;28;19913;-82
2022/05/30 07:26:48;;;;;;;;;;;;;;;;;;5036087;28;20023;-82
2022/05/30 07:29:14;;;;;;;;;;;;;;;;;;5036861;28;19935;-82
2022/05/30 07:31:40;;;;;;;;;;;;;;;;;;5039857;28;20058;-83
2022/05/30 07:34:06;;;;;;;;;;;;;;;;;;5033058;28;20504;-84
2022/05/30 07:36:32;;;;;;;;;;;;;;;;;;5037495;28;19912;-84
2022/05/30 07:38:58;;;;;;;;;;;;;;;;;;5029741;28;19959;-84
2022/05/30 07:41:24;;;;;;;;;;;;;;;;;;5040326;28;19908;-85
2022/05/30 07:43:50;;;;;;;;;;;;;;;;;;5040781;28;19913;-84
2022/05/30 07:46:15;;;;;;;;;;;;;;;;;;5035991;28;19921;-85
2022/05/30 07:48:41;;;;;;;;;;;;;;;;;;5040060;28;19909;-85
2022/05/30 07:51:07;;;;;;;;;;;;;;;;;;5036265;28;19913;-85
2022/05/30 07:53:33;;;;;;;;;;;;;;;;;;5038429;28;20305;-85
2022/05/30 07:55:59;;;;;;;;;;;;;;;;;;5036643;28;19916;-85
2022/05/30 07:58:25;;;;;;;;;;;;;;;;;;5042441;28;20610;-85
2022/05/30 08:00:52;;;;;;;;;;;;;;;;;;5039008;28;20552;-84
2022/05/30 08:03:18;;;;;;;;;;;;;;;;;;5038444;28;19909;-85
2022/05/30 08:05:45;;;;;;;;;;;;;;;;;;5028766;28;19966;-86
2022/05/30 08:08:11;;;;;;;;;;;;;;;;;;5028644;28;20409;-82
2022/05/30 08:10:37;;;;;;;;;;;;;;;;;;5034108;28;20555;-86
2022/05/30 08:13:03;;;;;;;;;;;;;;;;;;5039344;28;20397;-85
2022/05/30 08:15:30;;;;;;;;;;;;;;;;;;5036297;28;19999;-87
2022/05/30 08:17:56;;;;;;;;;;;;;;;;;;5035842;28;19951;-85
2022/05/30 08:20:22;;;;;;;;;;;;;;;;;;5036059;28;19962;-87
2022/05/30 08:22:48;;;;;;;;;;;;;;;;;;5035487;28;19912;-86
2022/05/30 08:25:14;;;;;;;;;;;;;;;;;;5038290;28;20457;-84
2022/05/30 08:27:40;;;;;;;;;;;;;;;;;;5039568;28;19927;-84
2022/05/30 08:30:06;;;;;;;;;;;;;;;;;;5036095;28;19925;-84
2022/05/30 08:32:32;;;;;;;;;;;;;;;;;;5036015;28;19913;-85
2022/05/30 08:34:59;;;;;;;;;;;;;;;;;;5035213;28;19912;-84
2022/05/30 08:37:30;;;;;;;;;;;;;;;;;;5032835;28;20282;-86
2022/05/30 08:42:40;;;;;;;;;;;;;;;;;;5038635;28;19919;-83
2022/05/30 08:45:09;;;;;;;;;;;;;;;;;;5028764;28;19925;-83
2022/05/30 08:47:35;;;;;;;;;;;;;;;;;;5032554;28;19919;-84
2022/05/30 08:50:01;;;;;;;;;;;;;;;;;;5036625;28;19920;-84
2022/05/30 08:52:27;;;;;;;;;;;;;;;;;;5035313;28;19913;-84
2022/05/30 08:54:53;;;;;;;;;;;;;;;;;;5039099;28;19970;-84
2022/05/30 08:57:19;;;;;;;;;;;;;;;;;;5037396;28;19984;-85
2022/05/30 08:59:45;;;;;;;;;;;;;;;;;;5035978;28;20401;-85
2022/05/30 09:02:11;;;;;;;;;;;;;;;;;;5035833;28;19920;-85
2022/05/30 09:04:36;;;;;;;;;;;;;;;;;;5029749;28;20382;-85
2022/05/30 09:07:02;;;;;;;;;;;;;;;;;;5028728;28;19913;-85
2022/05/30 09:09:28;;;;;;;;;;;;;;;;;;5037759;28;19912;-84
2022/05/30 09:11:54;;;;;;;;;;;;;;;;;;5033530;28;19917;-84
2022/05/30 09:14:20;;;;;;;;;;;;;;;;;;5037634;28;19920;-84
2022/05/30 09:16:46;;;;;;;;;;;;;;;;;;5032725;28;20011;-85
2022/05/30 09:19:12;;;;;;;;;;;;;;;;;;5035227;28;19924;-87
2022/05/30 09:21:38;;;;;;;;;;;;;;;;;;5034845;28;19913;-91
2022/05/30 09:24:04;;;;;;;;;;;;;;;;;;5036404;28;19951;-90
2022/05/30 09:26:32;;;;;;;;;;;;;;;;;;5031247;28;19925;-82
2022/05/30 09:28:58;;;;;;;;;;;;;;;;;;5036158;28;19913;-82
2022/05/30 09:31:24;;;;;;;;;;;;;;;;;;5034587;28;20401;-85
2022/05/30 09:33:50;;;;;;;;;;;;;;;;;;5034180;28;19916;-86
2022/05/30 09:36:18;;;;;;;;;;;;;;;;;;5036159;28;19912;-87
2022/05/30 09:38:45;;;;;;;;;;;;;;;;;;5040170;28;19916;-85
2022/05/30 09:41:11;;;;;;;;;;;;;;;;;;5039608;28;20461;-86
2022/05/30 09:43:37;;;;;;;;;;;;;;;;;;5037417;28;19912;-85
2022/05/30 09:46:02;;;;;;;;;;;;;;;;;;5035269;28;19974;-86
2022/05/30 09:48:28;;;;;;;;;;;;;;;;;;5037982;28;19912;-86
2022/05/30 09:50:56;;;;;;;;;;;;;;;;;;5035160;28;19983;-86
2022/05/30 09:53:22;;;;;;;;;;;;;;;;;;5037175;28;20415;-86
2022/05/30 09:55:48;;;;;;;;;;;;;;;;;;5035803;28;19916;-86
2022/05/30 09:58:14;;;;;;;;;;;;;;;;;;5036424;28;19919;-86
2022/05/30 10:00:40;;;;;;;;;;;;;;;;;;5038762;28;19917;-86
2022/05/30 10:03:07;;;;;;;;;;;;;;;;;;5035413;28;20345;-87
2022/05/30 10:05:33;;;;;;;;;;;;;;;;;;5043117;28;19923;-86
2022/05/30 10:07:59;;;;;;;;;;;;;;;;;;5041183;28;19908;-86
2022/05/30 10:10:24;;;;;;;;;;;;;;;;;;5038482;28;19916;-87
2022/05/30 10:12:50;;;;;;;;;;;;;;;;;;5040955;28;19912;-87
2022/05/30 10:15:16;;;;;;;;;;;;;;;;;;5040184;28;19913;-86
2022/05/30 10:17:42;;;;;;;;;;;;;;;;;;5039961;28;19940;-86
2022/05/30 10:20:08;;;;;;;;;;;;;;;;;;5036358;28;20418;-86
2022/05/30 10:28:16;;;;;;;;;;;;;;;;;;5039141;28;20432;-87
2022/05/30 10:30:44;;;;;;;;;;;;;;;;;;5033055;28;19968;-87
2022/05/30 10:33:10;;;;;;;;;;;;;;;;;;5038532;28;20161;-86
2022/05/30 10:35:35;;;;;;;;;;;;;;;;;;5039947;28;20440;-86
2022/05/30 10:38:02;;;;;;;;;;;;;;;;;;5043354;28;19938;-87
2022/05/30 10:40:28;;;;;;;;;;;;;;;;;;5034870;28;19918;-87
2022/05/30 10:42:54;;;;;;;;;;;;;;;;;;5035839;28;20600;-83
2022/05/30 10:45:20;;;;;;;;;;;;;;;;;;5041165;28;19924;-84
2022/05/30 10:47:46;;;;;;;;;;;;;;;;;;5040044;28;19913;-83
2022/05/30 10:50:12;;;;;;;;;;;;;;;;;;5036466;28;19971;-84
2022/05/30 10:52:38;;;;;;;;;;;;;;;;;;5034297;28;19920;-84
2022/05/30 10:55:04;;;;;;;;;;;;;;;;;;5040865;28;19913;-83
2022/05/30 10:57:32;;;;;;;;;;;;;;;;;;5042731;28;19927;-84
2022/05/30 10:59:58;;;;;;;;;;;;;;;;;;5037356;28;19913;-84
2022/05/30 11:02:25;;;;;;;;;;;;;;;;;;5038284;28;19909;-83
2022/05/30 11:04:51;;;;;;;;;;;;;;;;;;5036356;28;20381;-84
2022/05/30 11:07:17;;;;;;;;;;;;;;;;;;5039537;28;19943;-83
2022/05/30 11:09:43;;;;;;;;;;;;;;;;;;5036266;28;20752;-83
2022/05/30 11:12:09;;;;;;;;;;;;;;;;;;5041903;28;19913;-83
2022/05/30 11:14:35;;;;;;;;;;;;;;;;;;5038212;28;19919;-83
2022/05/30 11:17:01;;;;;;;;;;;;;;;;;;5035089;28;19912;-84
2022/05/30 11:19:27;;;;;;;;;;;;;;;;;;5035228;28;19913;-83
2022/05/30 11:21:54;;;;;;;;;;;;;;;;;;5039214;28;19913;-83
2022/05/30 11:24:20;;;;;;;;;;;;;;;;;;5042761;28;20282;-83
2022/05/30 11:26:46;;;;;;;;;;;;;;;;;;5037231;28;19947;-83
2022/05/30 11:29:12;;;;;;;;;;;;;;;;;;5042799;28;19921;-83
2022/05/30 11:31:38;;;;;;;;;;;;;;;;;;5038866;28;19912;-83
2022/05/30 11:34:04;;;;;;;;;;;;;;;;;;5033099;28;19920;-85
2022/05/30 11:36:30;;;;;;;;;;;;;;;;;;5036813;28;19924;-83
2022/05/30 11:38:56;;;;;;;;;;;;;;;;;;5036593;28;19921;-82
2022/05/30 11:41:22;;;;;;;;;;;;;;;;;;5033660;28;19905;-82
2022/05/30 11:43:48;;;;;;;;;;;;;;;;;;5035373;28;19913;-83
2022/05/30 11:46:14;;;;;;;;;;;;;;;;;;5032506;28;19921;-82
2022/05/30 11:48:40;;;;;;;;;;;;;;;;;;5039844;28;20304;-82
2022/05/30 11:51:06;;;;;;;;;;;;;;;;;;5051247;28;20623;-82
2022/05/30 11:53:32;;;;;;;;;;;;;;;;;;5039405;28;19954;-82
2022/05/30 11:55:58;;;;;;;;;;;;;;;;;;5036073;28;19912;-83
2022/05/30 11:58:24;;;;;;;;;;;;;;;;;;5035203;28;20501;-83
2022/05/30 12:00:53;;;;;;;;;;;;;;;;;;5039040;28;20418;-82
2022/05/30 12:03:22;;;;;;;;;;;;;;;;;;5038516;28;20134;-83
2022/05/30 12:05:48;;;;;;;;;;;;;;;;;;5036403;28;19927;-82
2022/05/30 12:08:14;;;;;;;;;;;;;;;;;;5037375;28;19917;-80
2022/05/30 12:10:42;;;;;;;;;;;;;;;;;;5034818;28;20003;-83
2022/05/30 12:13:08;;;;;;;;;;;;;;;;;;5037400;28;19913;-83
2022/05/30 12:15:34;;;;;;;;;;;;;;;;;;5040038;28;19924;-81
2022/05/30 12:26:14;;;;;;;;;;;;;;;;;;5033304;28;19932;-82
2022/05/30 12:28:40;;;;;;;;;;;;;;;;;;5036692;28;19920;-81
2022/05/30 12:31:06;;;;;;;;;;;;;;;;;;5035085;28;19970;-82
2022/05/30 12:33:31;;;;;;;;;;;;;;;;;;5039678;28;19938;-81
2022/05/30 12:35:57;;;;;;;;;;;;;;;;;;5036282;28;20350;-82
2022/05/30 12:38:24;;;;;;;;;;;;;;;;;;5037873;28;19916;-82
2022/05/30 12:40:50;;;;;;;;;;;;;;;;;;5039542;28;20054;-81
2022/05/30 12:43:16;;;;;;;;;;;;;;;;;;5040126;28;20007;-81
2022/05/30 12:45:42;;;;;;;;;;;;;;;;;;5037332;28;19913;-82
2022/05/30 12:48:08;;;;;;;;;;;;;;;;;;5038756;28;19973;-82
2022/05/30 12:50:34;;;;;;;;;;;;;;;;;;5038443;28;20334;-81
2022/05/30 12:53:00;;;;;;;;;;;;;;;;;;5035039;28;19920;-81
2022/05/30 12:55:26;;;;;;;;;;;;;;;;;;5034728;28;19917;-81
2022/05/30 12:57:51;;;;;;;;;;;;;;;;;;5036539;28;19913;-81
2022/05/30 13:00:17;;;;;;;;;;;;;;;;;;5035500;28;20337;-81
2022/05/30 13:02:43;;;;;;;;;;;;;;;;;;5066959;28;19924;-82
2022/05/30 13:05:09;;;;;;;;;;;;;;;;;;5038680;28;19930;-81
2022/05/30 13:07:35;;;;;;;;;;;;;;;;;;5032708;28;19917;-82
2022/05/30 13:10:01;;;;;;;;;;;;;;;;;;5038195;28;19919;-82
2022/05/30 13:12:51;;;;;;;;;;;;;;;;;;5038303;28;19912;-82
2022/05/30 13:15:13;;;;;;;;;;;;;;;;;;5036144;28;20373;-82
2022/05/30 13:17:39;;;;;;;;;;;;;;;;;;5037076;28;19916;-82
2022/05/30 13:20:05;;;;;;;;;;;;;;;;;;5035663;28;20003;-82
2022/05/30 13:22:31;;;;;;;;;;;;;;;;;;5034453;28;20467;-82
2022/05/30 13:24:56;;;;;;;;;;;;;;;;;;5037135;28;20378;-81
2022/05/30 13:27:22;;;;;;;;;;;;;;;;;;5037677;28;19916;-82
2022/05/30 13:29:48;;;;;;;;;;;;;;;;;;5038959;28;19943;-82
2022/05/30 13:32:14;;;;;;;;;;;;;;;;;;5033070;28;19920;-82
2022/05/30 13:34:40;;;;;;;;;;;;;;;;;;5038892;28;19935;-82
2022/05/30 13:37:06;;;;;;;;;;;;;;;;;;5038981;28;19912;-82
2022/05/30 13:39:32;;;;;;;;;;;;;;;;;;5036511;28;19913;-82
2022/05/30 13:41:58;;;;;;;;;;;;;;;;;;5038778;28;19916;-82
2022/05/30 13:44:25;;;;;;;;;;;;;;;;;;5036392;28;19970;-82
2022/05/30 13:46:50;;;;;;;;;;;;;;;;;;5040878;28;19924;-81
2022/05/30 13:49:16;;;;;;;;;;;;;;;;;;5033900;28;20007;-82
2022/05/30 13:51:42;;;;;;;;;;;;;;;;;;5050478;28;20317;-81
2022/05/30 13:54:09;;;;;;;;;;;;;;;;;;5033043;28;19913;-82
2022/05/30 13:56:35;;;;;;;;;;;;;;;;;;5028248;28;19913;-82
2022/05/30 13:59:00;;;;;;;;;;;;;;;;;;5068562;28;19916;-82
2022/05/30 14:01:26;;;;;;;;;;;;;;;;;;5034426;28;20469;-82
2022/05/30 14:03:52;;;;;;;;;;;;;;;;;;5036450;28;20471;-81
2022/05/30 14:06:18;;;;;;;;;;;;;;;;;;5037912;28;19921;-82
2022/05/30 14:08:44;;;;;;;;;;;;;;;;;;5036555;28;19909;-82
2022/05/30 14:11:10;;;;;;;;;;;;;;;;;;5035374;28;20432;-82
2022/05/30 14:13:36;;;;;;;;;;;;;;;;;;5037642;28;19943;-83
2022/05/30 14:16:04;;;;;;;;;;;;;;;;;;5038865;28;20098;-82
2022/05/30 14:18:34;;;;;;;;;;;;;;;;;;5059846;28;19913;-83
2022/05/30 14:21:00;;;;;;;;;;;;;;;;;;5035473;28;20636;-82
2022/05/30 14:23:28;;;;;;;;;;;;;;;;;;5023145;28;19970;-81
2022/05/30 14:25:54;;;;;;;;;;;;;;;;;;5037587;28;19916;-80
2022/05/30 14:28:20;;;;;;;;;;;;;;;;;;5034215;28;19925;-79
2022/05/30 14:30:46;;;;;;;;;;;;;;;;;;5038096;28;20293;-80
2022/05/30 14:33:11;;;;;;;;;;;;;;;;;;5035960;28;19913;-79
2022/05/30 14:35:38;;;;;;;;;;;;;;;;;;5034280;28;19920;-78
2022/05/30 14:38:04;;;;;;;;;;;;;;;;;;5035997;28;19919;-89
2022/05/30 14:40:30;;;;;;;;;;;;;;;;;;5039304;28;20379;-88
2022/05/30 14:42:56;;;;;;;;;;;;;;;;;;5038597;28;20393;-88
2022/05/30 14:45:22;;;;;;;;;;;;;;;;;;5039760;28;20012;-89
2022/05/30 14:47:51;;;;;;;;;;;;;;;;;;5033999;28;19987;-90
2022/05/30 14:50:18;;;;;;;;;;;;;;;;;;5037228;28;19952;-89
2022/05/30 14:52:46;;;;;;;;;;;;;;;;;;5037875;28;19909;-90
2022/05/30 14:55:12;;;;;;;;;;;;;;;;;;5045156;28;20003;-89
2022/05/30 14:57:38;;;;;;;;;;;;;;;;;;5043162;28;19991;-88
2022/05/30 15:00:04;;;;;;;;;;;;;;;;;;5038885;28;19944;-89
2022/05/30 15:05:14;;;;;;;;;;;;;;;;;;5042371;28;19923;-89
2022/05/30 15:07:41;;;;;;;;;;;;;;;;;;5037205;28;19913;-89
2022/05/30 15:10:07;;;;;;;;;;;;;;;;;;5039021;28;20050;-88
2022/05/30 15:12:33;;;;;;;;;;;;;;;;;;5043595;28;19995;-87
2022/05/30 15:14:58;;;;;;;;;;;;;;;;;;5026318;28;19923;-88
2022/05/30 15:17:24;;;;;;;;;;;;;;;;;;5037990;28;20801;-88
2022/05/30 15:19:53;;;;;;;;;;;;;;;;;;5035352;28;19916;-81
2022/05/30 15:22:19;;;;;;;;;;;;;;;;;;5038145;28;19909;-82
2022/05/30 15:24:45;;;;;;;;;;;;;;;;;;5036459;28;20682;-81
2022/05/30 15:27:13;;;;;;;;;;;;;;;;;;5037603;28;19979;-80
2022/05/30 15:29:39;;;;;;;;;;;;;;;;;;5032732;28;19928;-79
2022/05/30 15:32:05;;;;;;;;;;;;;;;;;;5031172;28;19919;-79
2022/05/30 15:34:31;;;;;;;;;;;;;;;;;;5030364;28;19912;-80
2022/05/30 15:36:59;;;;;;;;;;;;;;;;;;5033549;28;19912;-81
2022/05/30 15:39:25;;;;;;;;;;;;;;;;;;5026054;28;19955;-79
2022/05/30 15:41:51;;;;;;;;;;;;;;;;;;5026793;28;20015;-80
2022/05/30 15:44:17;;;;;;;;;;;;;;;;;;5030749;28;19913;-80
2022/05/30 15:46:44;;;;;;;;;;;;;;;;;;5060625;28;20528;-79
2022/05/30 15:49:09;;;;;;;;;;;;;;;;;;5028130;28;20974;-80
2022/05/30 15:51:35;;;;;;;;;;;;;;;;;;5030204;28;19961;-80
2022/05/30 15:59:31;;;;;;;;;;;;;;;;;;5028028;28;20377;-80
2022/05/30 16:01:57;;;;;;;;;;;;;;;;;;5031359;28;19967;-79
2022/05/30 16:04:23;;;;;;;;;;;;;;;;;;5028854;28;20004;-80
2022/05/30 16:06:52;;;;;;;;;;;;;;;;;;5030957;28;20011;-79
2022/05/30 16:09:19;;;;;;;;;;;;;;;;;;5026979;28;20584;-80
2022/05/30 16:11:46;;;;;;;;;;;;;;;;;;5026841;28;19959;-81
2022/05/30 16:14:12;;;;;;;;;;;;;;;;;;5032304;28;19909;-80
2022/05/30 16:16:38;;;;;;;;;;;;;;;;;;5030059;28;19923;-80
2022/05/30 16:19:04;;;;;;;;;;;;;;;;;;5028891;28;19936;-80
2022/05/30 16:21:30;;;;;;;;;;;;;;;;;;5027917;28;20623;-80
2022/05/30 16:23:56;;;;;;;;;;;;;;;;;;5061796;28;19917;-80
2022/05/30 16:26:22;;;;;;;;;;;;;;;;;;5029330;28;19921;-82
2022/05/30 16:28:48;;;;;;;;;;;;;;;;;;5033393;28;20004;-82
2022/05/30 16:31:14;;;;;;;;;;;;;;;;;;5030300;28;19923;-82
2022/05/30 16:33:40;;;;;;;;;;;;;;;;;;5034835;28;19917;-82
2022/05/30 16:36:07;;;;;;;;;;;;;;;;;;5024857;28;19919;-81
2022/05/30 16:38:33;;;;;;;;;;;;;;;;;;5035808;28;19919;-82
2022/05/30 16:40:59;;;;;;;;;;;;;;;;;;5031771;28;19913;-80
2022/05/30 16:43:26;;;;;;;;;;;;;;;;;;5028865;28;19912;-79
2022/05/30 16:45:52;;;;;;;;;;;;;;;;;;5058009;28;19920;-80
2022/05/30 16:48:17;;;;;;;;;;;;;;;;;;5026144;28;19919;-81
2022/05/30 16:50:43;;;;;;;;;;;;;;;;;;5025302;28;19905;-80
2022/05/30 16:53:09;;;;;;;;;;;;;;;;;;5027250;28;19913;-80
2022/05/30 16:55:35;;;;;;;;;;;;;;;;;;5031416;28;19967;-80
2022/05/30 16:58:01;;;;;;;;;;;;;;;;;;5030100;28;19917;-80
2022/05/30 17:00:27;;;;;;;;;;;;;;;;;;5025246;28;19917;-80
2022/05/30 17:02:53;;;;;;;;;;;;;;;;;;5060716;28;19916;-80
2022/05/30 17:05:20;;;;;;;;;;;;;;;;;;5027110;28;19913;-80
2022/05/30 17:07:49;;;;;;;;;;;;;;;;;;5059517;28;20374;-80
2022/05/30 17:10:14;;;;;;;;;;;;;;;;;;5028280;28;19955;-80
2022/05/30 17:12:40;;;;;;;;;;;;;;;;;;5035844;28;20022;-79
2022/05/30 17:15:06;;;;;;;;;;;;;;;;;;5038030;28;20873;-80
2022/05/30 17:17:32;;;;;;;;;;;;;;;;;;5030075;28;19920;-79
2022/05/30 17:19:58;;;;;;;;;;;;;;;;;;5030573;28;20464;-80